sensor_id;sensor_type;location;lat;lon;timestamp;P1;durP1;ratioP1;P2;durP2;ratioP2
32705;SDS011;19094;50.972;3.538;2023-08-08T00:02:21;13.35;;;2.50;;
32705;SDS011;19094;50.972;3.538;2023-08-08T00:04:48;16.85;;;3.13;;
32705;SDS011;19094;50.972;3.538;2023-08-08T00:07:15;15.93;;;3.33;;
32705;SDS011;19094;50.972;3.538;2023-08-08T00:09:40;12.45;;;3.10;;
32705;SDS011;19094;50.972;3.538;2023-08-08T00:12:06;10.18;;;2.92;;
32705;SDS011;19094;50.972;3.538;2023-08-08T00:14:32;10.25;;;2.83;;
32705;SDS011;19094;50.972;3.538;2023-08-08T00:16:58;13.15;;;2.75;;
32705;SDS011;19094;50.972;3.538;2023-08-08T00:19:23;13.18;;;2.88;;
32705;SDS011;19094;50.972;3.538;2023-08-08T00:21:49;8.48;;;2.95;;
32705;SDS011;19094;50.972;3.538;2023-08-08T00:24:15;8.90;;;2.30;;
32705;SDS011;19094;50.972;3.538;2023-08-08T00:26:40;15.32;;;3.70;;
32705;SDS011;19094;50.972;3.538;2023-08-08T00:29:06;8.23;;;2.70;;
32705;SDS011;19094;50.972;3.538;2023-08-08T00:31:32;13.05;;;2.70;;
32705;SDS011;19094;50.972;3.538;2023-08-08T00:33:57;9.40;;;3.00;;
32705;SDS011;19094;50.972;3.538;2023-08-08T00:36:23;15.82;;;3.03;;
32705;SDS011;19094;50.972;3.538;2023-08-08T00:38:48;17.48;;;3.00;;
32705;SDS011;19094;50.972;3.538;2023-08-08T00:41:14;12.77;;;3.25;;
32705;SDS011;19094;50.972;3.538;2023-08-08T00:43:40;13.25;;;2.80;;
32705;SDS011;19094;50.972;3.538;2023-08-08T00:46:06;14.55;;;3.78;;
32705;SDS011;19094;50.972;3.538;2023-08-08T00:48:32;14.43;;;3.38;;
32705;SDS011;19094;50.972;3.538;2023-08-08T00:50:58;13.25;;;3.08;;
32705;SDS011;19094;50.972;3.538;2023-08-08T00:53:24;16.05;;;3.10;;
32705;SDS011;19094;50.972;3.538;2023-08-08T00:55:53;12.27;;;3.13;;
32705;SDS011;19094;50.972;3.538;2023-08-08T00:58:19;19.58;;;4.28;;
32705;SDS011;19094;50.972;3.538;2023-08-08T01:00:45;21.27;;;4.32;;
32705;SDS011;19094;50.972;3.538;2023-08-08T01:03:10;17.67;;;4.30;;
32705;SDS011;19094;50.972;3.538;2023-08-08T01:05:38;16.70;;;5.38;;
32705;SDS011;19094;50.972;3.538;2023-08-08T01:08:08;16.70;;;6.85;;
32705;SDS011;19094;50.972;3.538;2023-08-08T01:10:39;15.10;;;6.18;;
32705;SDS011;19094;50.972;3.538;2023-08-08T01:13:12;18.40;;;7.28;;
32705;SDS011;19094;50.972;3.538;2023-08-08T01:15:42;19.92;;;6.60;;
32705;SDS011;19094;50.972;3.538;2023-08-08T01:18:09;19.55;;;7.25;;
32705;SDS011;19094;50.972;3.538;2023-08-08T01:20:36;17.55;;;7.28;;
32705;SDS011;19094;50.972;3.538;2023-08-08T01:25:34;18.80;;;6.78;;
32705;SDS011;19094;50.972;3.538;2023-08-08T01:28:00;19.75;;;6.07;;
32705;SDS011;19094;50.972;3.538;2023-08-08T01:30:26;21.95;;;4.95;;
32705;SDS011;19094;50.972;3.538;2023-08-08T01:32:52;32.40;;;5.50;;
32705;SDS011;19094;50.972;3.538;2023-08-08T01:35:17;16.70;;;5.13;;
32705;SDS011;19094;50.972;3.538;2023-08-08T01:37:50;22.83;;;5.03;;
32705;SDS011;19094;50.972;3.538;2023-08-08T01:40:18;17.77;;;4.78;;
32705;SDS011;19094;50.972;3.538;2023-08-08T01:42:46;21.05;;;5.38;;
32705;SDS011;19094;50.972;3.538;2023-08-08T01:45:14;23.48;;;5.28;;
32705;SDS011;19094;50.972;3.538;2023-08-08T01:47:40;17.77;;;4.78;;
32705;SDS011;19094;50.972;3.538;2023-08-08T01:50:06;19.83;;;4.55;;
32705;SDS011;19094;50.972;3.538;2023-08-08T01:52:33;15.75;;;3.75;;
32705;SDS011;19094;50.972;3.538;2023-08-08T01:54:59;21.95;;;4.30;;
32705;SDS011;19094;50.972;3.538;2023-08-08T01:57:25;12.32;;;4.72;;
32705;SDS011;19094;50.972;3.538;2023-08-08T01:59:51;21.27;;;4.68;;
32705;SDS011;19094;50.972;3.538;2023-08-08T02:02:17;22.58;;;4.85;;
32705;SDS011;19094;50.972;3.538;2023-08-08T02:04:43;16.40;;;4.70;;
32705;SDS011;19094;50.972;3.538;2023-08-08T02:07:08;13.57;;;3.97;;
32705;SDS011;19094;50.972;3.538;2023-08-08T02:09:34;16.88;;;4.72;;
32705;SDS011;19094;50.972;3.538;2023-08-08T02:12:00;10.15;;;3.97;;
32705;SDS011;19094;50.972;3.538;2023-08-08T02:14:25;20.27;;;4.35;;
32705;SDS011;19094;50.972;3.538;2023-08-08T02:16:51;14.25;;;4.50;;
32705;SDS011;19094;50.972;3.538;2023-08-08T02:19:17;20.27;;;4.07;;
32705;SDS011;19094;50.972;3.538;2023-08-08T02:21:42;18.30;;;4.55;;
32705;SDS011;19094;50.972;3.538;2023-08-08T02:24:08;14.48;;;3.88;;
32705;SDS011;19094;50.972;3.538;2023-08-08T02:26:34;16.92;;;4.53;;
32705;SDS011;19094;50.972;3.538;2023-08-08T02:28:59;17.40;;;4.18;;
32705;SDS011;19094;50.972;3.538;2023-08-08T02:31:25;18.08;;;3.97;;
32705;SDS011;19094;50.972;3.538;2023-08-08T02:33:51;18.00;;;4.68;;
32705;SDS011;19094;50.972;3.538;2023-08-08T02:36:17;16.50;;;4.80;;
32705;SDS011;19094;50.972;3.538;2023-08-08T02:38:43;17.95;;;4.07;;
32705;SDS011;19094;50.972;3.538;2023-08-08T02:41:09;17.65;;;3.92;;
32705;SDS011;19094;50.972;3.538;2023-08-08T02:43:35;12.48;;;3.65;;
32705;SDS011;19094;50.972;3.538;2023-08-08T02:46:01;12.73;;;3.83;;
32705;SDS011;19094;50.972;3.538;2023-08-08T02:48:27;9.73;;;3.45;;
32705;SDS011;19094;50.972;3.538;2023-08-08T02:50:54;16.25;;;4.00;;
32705;SDS011;19094;50.972;3.538;2023-08-08T02:53:19;17.00;;;4.45;;
32705;SDS011;19094;50.972;3.538;2023-08-08T02:55:45;23.60;;;5.57;;
32705;SDS011;19094;50.972;3.538;2023-08-08T02:58:11;16.50;;;4.60;;
32705;SDS011;19094;50.972;3.538;2023-08-08T03:00:37;15.80;;;4.38;;
32705;SDS011;19094;50.972;3.538;2023-08-08T03:03:03;17.75;;;5.07;;
32705;SDS011;19094;50.972;3.538;2023-08-08T03:05:28;15.80;;;5.78;;
32705;SDS011;19094;50.972;3.538;2023-08-08T03:07:54;23.20;;;5.50;;
32705;SDS011;19094;50.972;3.538;2023-08-08T03:10:20;23.20;;;5.97;;
32705;SDS011;19094;50.972;3.538;2023-08-08T03:12:45;20.17;;;6.22;;
32705;SDS011;19094;50.972;3.538;2023-08-08T03:15:11;30.42;;;7.40;;
32705;SDS011;19094;50.972;3.538;2023-08-08T03:17:37;25.42;;;8.00;;
32705;SDS011;19094;50.972;3.538;2023-08-08T03:20:03;25.50;;;8.57;;
32705;SDS011;19094;50.972;3.538;2023-08-08T03:22:30;28.75;;;9.93;;
32705;SDS011;19094;50.972;3.538;2023-08-08T03:24:56;22.20;;;10.45;;
32705;SDS011;19094;50.972;3.538;2023-08-08T03:27:23;29.10;;;11.60;;
32705;SDS011;19094;50.972;3.538;2023-08-08T03:29:50;33.47;;;12.02;;
32705;SDS011;19094;50.972;3.538;2023-08-08T03:32:16;31.08;;;11.10;;
32705;SDS011;19094;50.972;3.538;2023-08-08T03:34:41;20.77;;;9.77;;
32705;SDS011;19094;50.972;3.538;2023-08-08T03:37:07;26.60;;;8.88;;
32705;SDS011;19094;50.972;3.538;2023-08-08T03:39:33;19.92;;;7.78;;
32705;SDS011;19094;50.972;3.538;2023-08-08T03:41:58;16.42;;;6.22;;
32705;SDS011;19094;50.972;3.538;2023-08-08T03:44:24;14.52;;;5.70;;
32705;SDS011;19094;50.972;3.538;2023-08-08T03:46:50;24.10;;;5.50;;
32705;SDS011;19094;50.972;3.538;2023-08-08T03:49:16;19.40;;;5.15;;
32705;SDS011;19094;50.972;3.538;2023-08-08T03:51:41;19.48;;;5.03;;
32705;SDS011;19094;50.972;3.538;2023-08-08T03:54:07;19.15;;;5.30;;
32705;SDS011;19094;50.972;3.538;2023-08-08T03:56:33;19.85;;;4.18;;
32705;SDS011;19094;50.972;3.538;2023-08-08T03:58:59;16.45;;;4.60;;
32705;SDS011;19094;50.972;3.538;2023-08-08T04:01:24;21.33;;;5.45;;
32705;SDS011;19094;50.972;3.538;2023-08-08T04:03:50;14.25;;;4.28;;
32705;SDS011;19094;50.972;3.538;2023-08-08T04:06:16;23.75;;;4.93;;
32705;SDS011;19094;50.972;3.538;2023-08-08T04:08:41;21.58;;;4.38;;
32705;SDS011;19094;50.972;3.538;2023-08-08T04:11:07;17.20;;;4.07;;
32705;SDS011;19094;50.972;3.538;2023-08-08T04:13:33;23.92;;;4.90;;
32705;SDS011;19094;50.972;3.538;2023-08-08T04:16:00;20.42;;;4.85;;
32705;SDS011;19094;50.972;3.538;2023-08-08T04:18:26;15.27;;;4.22;;
32705;SDS011;19094;50.972;3.538;2023-08-08T04:20:51;17.85;;;4.72;;
32705;SDS011;19094;50.972;3.538;2023-08-08T04:23:17;19.77;;;4.20;;
32705;SDS011;19094;50.972;3.538;2023-08-08T04:25:42;16.77;;;4.30;;
32705;SDS011;19094;50.972;3.538;2023-08-08T04:28:09;14.05;;;4.43;;
32705;SDS011;19094;50.972;3.538;2023-08-08T04:30:34;21.85;;;4.28;;
32705;SDS011;19094;50.972;3.538;2023-08-08T04:33:00;14.70;;;4.30;;
32705;SDS011;19094;50.972;3.538;2023-08-08T04:35:26;18.88;;;4.22;;
32705;SDS011;19094;50.972;3.538;2023-08-08T04:37:51;17.75;;;3.83;;
32705;SDS011;19094;50.972;3.538;2023-08-08T04:40:17;18.40;;;5.07;;
32705;SDS011;19094;50.972;3.538;2023-08-08T04:42:43;16.45;;;4.32;;
32705;SDS011;19094;50.972;3.538;2023-08-08T04:45:08;20.60;;;4.78;;
32705;SDS011;19094;50.972;3.538;2023-08-08T04:47:34;19.70;;;4.40;;
32705;SDS011;19094;50.972;3.538;2023-08-08T04:50:00;17.55;;;4.40;;
32705;SDS011;19094;50.972;3.538;2023-08-08T04:52:26;17.88;;;4.47;;
32705;SDS011;19094;50.972;3.538;2023-08-08T04:54:52;19.98;;;4.22;;
32705;SDS011;19094;50.972;3.538;2023-08-08T04:57:17;21.52;;;4.88;;
32705;SDS011;19094;50.972;3.538;2023-08-08T04:59:43;25.95;;;4.65;;
32705;SDS011;19094;50.972;3.538;2023-08-08T05:02:09;22.88;;;4.55;;
32705;SDS011;19094;50.972;3.538;2023-08-08T05:04:34;17.05;;;4.25;;
32705;SDS011;19094;50.972;3.538;2023-08-08T05:07:00;14.35;;;4.32;;
32705;SDS011;19094;50.972;3.538;2023-08-08T05:09:25;18.60;;;5.55;;
32705;SDS011;19094;50.972;3.538;2023-08-08T05:11:52;14.70;;;5.18;;
32705;SDS011;19094;50.972;3.538;2023-08-08T05:14:18;25.35;;;6.15;;
32705;SDS011;19094;50.972;3.538;2023-08-08T05:16:44;26.02;;;7.05;;
32705;SDS011;19094;50.972;3.538;2023-08-08T05:19:11;21.13;;;6.97;;
32705;SDS011;19094;50.972;3.538;2023-08-08T05:21:37;22.75;;;9.50;;
32705;SDS011;19094;50.972;3.538;2023-08-08T05:24:02;27.65;;;9.60;;
32705;SDS011;19094;50.972;3.538;2023-08-08T05:26:28;25.35;;;9.77;;
32705;SDS011;19094;50.972;3.538;2023-08-08T05:28:54;27.92;;;9.95;;
32705;SDS011;19094;50.972;3.538;2023-08-08T05:31:19;32.80;;;11.60;;
32705;SDS011;19094;50.972;3.538;2023-08-08T05:33:48;34.55;;;10.73;;
32705;SDS011;19094;50.972;3.538;2023-08-08T05:36:14;20.05;;;9.95;;
32705;SDS011;19094;50.972;3.538;2023-08-08T05:38:39;21.42;;;8.60;;
32705;SDS011;19094;50.972;3.538;2023-08-08T05:41:06;18.45;;;7.68;;
32705;SDS011;19094;50.972;3.538;2023-08-08T05:43:32;23.98;;;7.53;;
32705;SDS011;19094;50.972;3.538;2023-08-08T05:45:58;17.67;;;6.47;;
32705;SDS011;19094;50.972;3.538;2023-08-08T05:48:24;19.48;;;5.65;;
32705;SDS011;19094;50.972;3.538;2023-08-08T05:50:49;13.25;;;4.60;;
32705;SDS011;19094;50.972;3.538;2023-08-08T05:53:15;17.65;;;4.88;;
32705;SDS011;19094;50.972;3.538;2023-08-08T05:55:41;18.20;;;4.55;;
32705;SDS011;19094;50.972;3.538;2023-08-08T05:58:09;12.38;;;4.47;;
32705;SDS011;19094;50.972;3.538;2023-08-08T06:00:35;14.85;;;4.30;;
32705;SDS011;19094;50.972;3.538;2023-08-08T06:03:04;22.35;;;4.65;;
32705;SDS011;19094;50.972;3.538;2023-08-08T06:05:30;13.98;;;4.05;;
32705;SDS011;19094;50.972;3.538;2023-08-08T06:07:55;14.00;;;3.70;;
32705;SDS011;19094;50.972;3.538;2023-08-08T06:10:21;16.33;;;4.15;;
32705;SDS011;19094;50.972;3.538;2023-08-08T06:12:47;16.92;;;3.70;;
32705;SDS011;19094;50.972;3.538;2023-08-08T06:15:13;15.00;;;3.58;;
32705;SDS011;19094;50.972;3.538;2023-08-08T06:17:38;12.73;;;3.55;;
32705;SDS011;19094;50.972;3.538;2023-08-08T06:20:04;11.65;;;4.18;;
32705;SDS011;19094;50.972;3.538;2023-08-08T06:22:32;15.30;;;3.90;;
32705;SDS011;19094;50.972;3.538;2023-08-08T06:24:57;15.35;;;3.85;;
32705;SDS011;19094;50.972;3.538;2023-08-08T06:27:23;18.95;;;4.35;;
32705;SDS011;19094;50.972;3.538;2023-08-08T06:29:48;8.00;;;3.50;;
32705;SDS011;19094;50.972;3.538;2023-08-08T06:32:14;14.57;;;3.63;;
32705;SDS011;19094;50.972;3.538;2023-08-08T06:34:40;28.10;;;4.20;;
32705;SDS011;19094;50.972;3.538;2023-08-08T06:37:05;15.57;;;4.15;;
32705;SDS011;19094;50.972;3.538;2023-08-08T06:39:31;20.38;;;4.30;;
32705;SDS011;19094;50.972;3.538;2023-08-08T06:41:57;11.73;;;3.67;;
32705;SDS011;19094;50.972;3.538;2023-08-08T06:44:23;12.27;;;3.25;;
32705;SDS011;19094;50.972;3.538;2023-08-08T06:46:48;16.85;;;4.63;;
32705;SDS011;19094;50.972;3.538;2023-08-08T06:49:14;16.58;;;4.00;;
32705;SDS011;19094;50.972;3.538;2023-08-08T06:51:40;13.80;;;3.97;;
32705;SDS011;19094;50.972;3.538;2023-08-08T06:54:05;15.70;;;3.50;;
32705;SDS011;19094;50.972;3.538;2023-08-08T06:56:32;16.23;;;3.20;;
32705;SDS011;19094;50.972;3.538;2023-08-08T06:58:58;11.07;;;3.95;;
32705;SDS011;19094;50.972;3.538;2023-08-08T07:01:24;12.43;;;4.15;;
32705;SDS011;19094;50.972;3.538;2023-08-08T07:03:49;15.23;;;3.58;;
32705;SDS011;19094;50.972;3.538;2023-08-08T07:06:17;11.18;;;3.00;;
32705;SDS011;19094;50.972;3.538;2023-08-08T07:08:43;10.65;;;3.95;;
32705;SDS011;19094;50.972;3.538;2023-08-08T07:11:08;15.95;;;3.85;;
32705;SDS011;19094;50.972;3.538;2023-08-08T07:13:34;14.05;;;3.70;;
32705;SDS011;19094;50.972;3.538;2023-08-08T07:16:00;11.00;;;3.78;;
32705;SDS011;19094;50.972;3.538;2023-08-08T07:18:26;9.40;;;3.55;;
32705;SDS011;19094;50.972;3.538;2023-08-08T07:20:52;14.70;;;3.50;;
32705;SDS011;19094;50.972;3.538;2023-08-08T07:23:18;12.05;;;3.45;;
32705;SDS011;19094;50.972;3.538;2023-08-08T07:25:44;13.43;;;3.30;;
32705;SDS011;19094;50.972;3.538;2023-08-08T07:28:11;17.00;;;4.30;;
32705;SDS011;19094;50.972;3.538;2023-08-08T07:30:39;12.75;;;3.60;;
32705;SDS011;19094;50.972;3.538;2023-08-08T07:33:05;14.10;;;3.55;;
32705;SDS011;19094;50.972;3.538;2023-08-08T07:35:33;11.15;;;3.60;;
32705;SDS011;19094;50.972;3.538;2023-08-08T07:37:59;11.38;;;3.30;;
32705;SDS011;19094;50.972;3.538;2023-08-08T07:40:25;12.05;;;3.80;;
32705;SDS011;19094;50.972;3.538;2023-08-08T07:42:51;10.15;;;3.20;;
32705;SDS011;19094;50.972;3.538;2023-08-08T07:45:17;10.25;;;3.55;;
32705;SDS011;19094;50.972;3.538;2023-08-08T07:47:43;13.85;;;3.75;;
32705;SDS011;19094;50.972;3.538;2023-08-08T07:50:09;14.77;;;3.28;;
32705;SDS011;19094;50.972;3.538;2023-08-08T07:52:35;14.23;;;3.92;;
32705;SDS011;19094;50.972;3.538;2023-08-08T07:55:01;12.25;;;3.63;;
32705;SDS011;19094;50.972;3.538;2023-08-08T07:57:27;10.88;;;3.10;;
32705;SDS011;19094;50.972;3.538;2023-08-08T07:59:53;12.88;;;3.22;;
32705;SDS011;19094;50.972;3.538;2023-08-08T08:02:18;12.98;;;4.60;;
32705;SDS011;19094;50.972;3.538;2023-08-08T08:04:44;9.77;;;3.63;;
32705;SDS011;19094;50.972;3.538;2023-08-08T08:07:10;9.02;;;3.10;;
32705;SDS011;19094;50.972;3.538;2023-08-08T08:09:35;15.60;;;3.65;;
32705;SDS011;19094;50.972;3.538;2023-08-08T08:12:01;16.15;;;4.88;;
32705;SDS011;19094;50.972;3.538;2023-08-08T08:14:27;12.65;;;4.80;;
32705;SDS011;19094;50.972;3.538;2023-08-08T08:16:52;23.23;;;5.15;;
32705;SDS011;19094;50.972;3.538;2023-08-08T08:19:19;24.85;;;5.75;;
32705;SDS011;19094;50.972;3.538;2023-08-08T08:21:45;15.05;;;4.85;;
32705;SDS011;19094;50.972;3.538;2023-08-08T08:24:11;18.77;;;4.85;;
32705;SDS011;19094;50.972;3.538;2023-08-08T08:26:36;17.30;;;4.53;;
32705;SDS011;19094;50.972;3.538;2023-08-08T08:29:02;21.90;;;5.00;;
32705;SDS011;19094;50.972;3.538;2023-08-08T08:31:28;12.57;;;4.35;;
32705;SDS011;19094;50.972;3.538;2023-08-08T08:33:54;12.25;;;4.10;;
32705;SDS011;19094;50.972;3.538;2023-08-08T08:36:23;12.05;;;4.50;;
32705;SDS011;19094;50.972;3.538;2023-08-08T08:38:51;23.13;;;6.55;;
32705;SDS011;19094;50.972;3.538;2023-08-08T08:41:18;14.52;;;4.75;;
32705;SDS011;19094;50.972;3.538;2023-08-08T08:43:45;11.30;;;4.72;;
32705;SDS011;19094;50.972;3.538;2023-08-08T08:46:12;11.18;;;4.47;;
32705;SDS011;19094;50.972;3.538;2023-08-08T08:48:41;18.50;;;5.50;;
32705;SDS011;19094;50.972;3.538;2023-08-08T08:51:07;13.35;;;5.15;;
32705;SDS011;19094;50.972;3.538;2023-08-08T08:53:33;15.45;;;5.18;;
32705;SDS011;19094;50.972;3.538;2023-08-08T08:56:04;15.95;;;4.40;;
32705;SDS011;19094;50.972;3.538;2023-08-08T08:58:30;15.63;;;3.50;;
32705;SDS011;19094;50.972;3.538;2023-08-08T09:00:56;8.13;;;2.88;;
32705;SDS011;19094;50.972;3.538;2023-08-08T09:03:23;11.27;;;3.53;;
32705;SDS011;19094;50.972;3.538;2023-08-08T09:05:49;10.80;;;3.63;;
32705;SDS011;19094;50.972;3.538;2023-08-08T09:08:19;8.75;;;3.13;;
32705;SDS011;19094;50.972;3.538;2023-08-08T09:10:45;11.07;;;2.88;;
32705;SDS011;19094;50.972;3.538;2023-08-08T09:13:11;12.45;;;2.95;;
32705;SDS011;19094;50.972;3.538;2023-08-08T09:15:36;11.73;;;2.92;;
32705;SDS011;19094;50.972;3.538;2023-08-08T09:18:02;6.47;;;2.70;;
32705;SDS011;19094;50.972;3.538;2023-08-08T09:20:28;6.05;;;3.42;;
32705;SDS011;19094;50.972;3.538;2023-08-08T09:22:54;9.48;;;3.17;;
32705;SDS011;19094;50.972;3.538;2023-08-08T09:25:20;6.85;;;2.28;;
32705;SDS011;19094;50.972;3.538;2023-08-08T09:27:45;5.93;;;3.28;;
32705;SDS011;19094;50.972;3.538;2023-08-08T09:30:12;8.98;;;3.53;;
32705;SDS011;19094;50.972;3.538;2023-08-08T09:32:38;8.13;;;3.90;;
32705;SDS011;19094;50.972;3.538;2023-08-08T09:35:03;13.18;;;3.90;;
32705;SDS011;19094;50.972;3.538;2023-08-08T09:37:32;11.55;;;3.80;;
32705;SDS011;19094;50.972;3.538;2023-08-08T09:39:58;9.57;;;4.68;;
32705;SDS011;19094;50.972;3.538;2023-08-08T09:42:26;12.15;;;5.03;;
32705;SDS011;19094;50.972;3.538;2023-08-08T09:44:52;9.75;;;4.97;;
32705;SDS011;19094;50.972;3.538;2023-08-08T09:47:18;8.45;;;5.10;;
32705;SDS011;19094;50.972;3.538;2023-08-08T09:49:46;12.32;;;4.47;;
32705;SDS011;19094;50.972;3.538;2023-08-08T09:52:12;8.90;;;4.95;;
32705;SDS011;19094;50.972;3.538;2023-08-08T09:54:39;10.90;;;4.07;;
32705;SDS011;19094;50.972;3.538;2023-08-08T09:57:06;8.65;;;4.53;;
32705;SDS011;19094;50.972;3.538;2023-08-08T09:59:32;6.93;;;3.63;;
32705;SDS011;19094;50.972;3.538;2023-08-08T10:01:59;7.95;;;3.88;;
32705;SDS011;19094;50.972;3.538;2023-08-08T10:04:25;12.85;;;3.65;;
32705;SDS011;19094;50.972;3.538;2023-08-08T10:06:52;7.07;;;3.15;;
32705;SDS011;19094;50.972;3.538;2023-08-08T10:09:17;8.85;;;2.95;;
32705;SDS011;19094;50.972;3.538;2023-08-08T10:11:43;5.57;;;2.45;;
32705;SDS011;19094;50.972;3.538;2023-08-08T10:14:10;7.00;;;2.40;;
32705;SDS011;19094;50.972;3.538;2023-08-08T10:16:37;6.25;;;2.10;;
32705;SDS011;19094;50.972;3.538;2023-08-08T10:19:03;7.97;;;2.58;;
32705;SDS011;19094;50.972;3.538;2023-08-08T10:21:34;7.05;;;2.15;;
32705;SDS011;19094;50.972;3.538;2023-08-08T10:24:02;6.10;;;2.30;;
32705;SDS011;19094;50.972;3.538;2023-08-08T10:26:29;5.93;;;1.85;;
32705;SDS011;19094;50.972;3.538;2023-08-08T10:28:56;3.08;;;1.60;;
32705;SDS011;19094;50.972;3.538;2023-08-08T10:31:23;7.15;;;1.85;;
32705;SDS011;19094;50.972;3.538;2023-08-08T10:33:48;4.60;;;1.70;;
32705;SDS011;19094;50.972;3.538;2023-08-08T10:36:14;7.97;;;1.70;;
32705;SDS011;19094;50.972;3.538;2023-08-08T10:38:48;2.80;;;1.45;;
32705;SDS011;19094;50.972;3.538;2023-08-08T10:41:19;4.03;;;2.00;;
32705;SDS011;19094;50.972;3.538;2023-08-08T10:43:50;6.10;;;1.63;;
32705;SDS011;19094;50.972;3.538;2023-08-08T10:46:25;3.08;;;1.45;;
32705;SDS011;19094;50.972;3.538;2023-08-08T10:48:58;6.22;;;1.88;;
32705;SDS011;19094;50.972;3.538;2023-08-08T10:51:41;6.90;;;1.75;;
32705;SDS011;19094;50.972;3.538;2023-08-08T10:54:13;3.78;;;1.50;;
32705;SDS011;19094;50.972;3.538;2023-08-08T10:56:39;4.90;;;1.70;;
32705;SDS011;19094;50.972;3.538;2023-08-08T10:59:16;5.68;;;1.52;;
32705;SDS011;19094;50.972;3.538;2023-08-08T11:01:46;2.55;;;1.20;;
32705;SDS011;19094;50.972;3.538;2023-08-08T11:04:14;4.20;;;1.95;;
32705;SDS011;19094;50.972;3.538;2023-08-08T11:06:41;4.55;;;1.58;;
32705;SDS011;19094;50.972;3.538;2023-08-08T11:09:07;2.63;;;1.27;;
32705;SDS011;19094;50.972;3.538;2023-08-08T11:11:39;7.68;;;2.10;;
32705;SDS011;19094;50.972;3.538;2023-08-08T11:14:16;4.22;;;1.60;;
32705;SDS011;19094;50.972;3.538;2023-08-08T11:16:43;6.57;;;1.65;;
32705;SDS011;19094;50.972;3.538;2023-08-08T11:19:11;5.70;;;1.45;;
32705;SDS011;19094;50.972;3.538;2023-08-08T11:21:37;4.57;;;1.60;;
32705;SDS011;19094;50.972;3.538;2023-08-08T11:24:05;6.03;;;1.75;;
32705;SDS011;19094;50.972;3.538;2023-08-08T11:26:32;11.55;;;1.73;;
32705;SDS011;19094;50.972;3.538;2023-08-08T11:29:02;6.50;;;1.88;;
32705;SDS011;19094;50.972;3.538;2023-08-08T11:31:29;5.57;;;1.58;;
32705;SDS011;19094;50.972;3.538;2023-08-08T11:33:55;3.47;;;1.23;;
32705;SDS011;19094;50.972;3.538;2023-08-08T11:36:21;6.07;;;2.17;;
32705;SDS011;19094;50.972;3.538;2023-08-08T11:38:47;6.45;;;1.63;;
32705;SDS011;19094;50.972;3.538;2023-08-08T11:41:15;4.47;;;2.00;;
32705;SDS011;19094;50.972;3.538;2023-08-08T11:43:43;4.50;;;1.77;;
32705;SDS011;19094;50.972;3.538;2023-08-08T11:46:11;5.95;;;1.65;;
32705;SDS011;19094;50.972;3.538;2023-08-08T11:48:38;8.25;;;3.50;;
32705;SDS011;19094;50.972;3.538;2023-08-08T11:51:04;2.25;;;1.35;;
32705;SDS011;19094;50.972;3.538;2023-08-08T11:53:30;3.13;;;1.30;;
32705;SDS011;19094;50.972;3.538;2023-08-08T11:55:56;4.35;;;1.58;;
32705;SDS011;19094;50.972;3.538;2023-08-08T11:58:24;2.60;;;1.20;;
32705;SDS011;19094;50.972;3.538;2023-08-08T12:00:50;4.72;;;1.10;;
32705;SDS011;19094;50.972;3.538;2023-08-08T12:03:17;4.78;;;1.40;;
32705;SDS011;19094;50.972;3.538;2023-08-08T12:05:47;2.38;;;1.08;;
32705;SDS011;19094;50.972;3.538;2023-08-08T12:08:20;1.80;;;1.17;;
32705;SDS011;19094;50.972;3.538;2023-08-08T12:10:52;4.82;;;1.13;;
32705;SDS011;19094;50.972;3.538;2023-08-08T12:13:23;3.13;;;1.33;;
32705;SDS011;19094;50.972;3.538;2023-08-08T12:15:52;8.88;;;1.48;;
32705;SDS011;19094;50.972;3.538;2023-08-08T12:18:18;3.58;;;1.58;;
32705;SDS011;19094;50.972;3.538;2023-08-08T12:20:44;3.83;;;1.27;;
32705;SDS011;19094;50.972;3.538;2023-08-08T12:23:11;5.22;;;1.35;;
32705;SDS011;19094;50.972;3.538;2023-08-08T12:25:38;2.58;;;1.27;;
32705;SDS011;19094;50.972;3.538;2023-08-08T12:28:04;5.22;;;1.10;;
32705;SDS011;19094;50.972;3.538;2023-08-08T12:30:30;6.25;;;1.00;;
32705;SDS011;19094;50.972;3.538;2023-08-08T12:32:56;2.17;;;1.20;;
32705;SDS011;19094;50.972;3.538;2023-08-08T12:35:22;2.10;;;1.10;;
32705;SDS011;19094;50.972;3.538;2023-08-08T12:37:51;4.28;;;1.45;;
32705;SDS011;19094;50.972;3.538;2023-08-08T12:40:17;4.75;;;1.23;;
32705;SDS011;19094;50.972;3.538;2023-08-08T12:42:43;7.35;;;1.40;;
32705;SDS011;19094;50.972;3.538;2023-08-08T12:45:09;5.30;;;1.33;;
32705;SDS011;19094;50.972;3.538;2023-08-08T12:47:35;1.45;;;0.95;;
32705;SDS011;19094;50.972;3.538;2023-08-08T12:50:03;2.08;;;0.90;;
32705;SDS011;19094;50.972;3.538;2023-08-08T12:52:30;3.05;;;1.05;;
32705;SDS011;19094;50.972;3.538;2023-08-08T12:54:55;2.25;;;0.82;;
32705;SDS011;19094;50.972;3.538;2023-08-08T12:57:21;1.40;;;0.90;;
32705;SDS011;19094;50.972;3.538;2023-08-08T12:59:47;2.45;;;1.20;;
32705;SDS011;19094;50.972;3.538;2023-08-08T13:02:13;3.92;;;1.15;;
32705;SDS011;19094;50.972;3.538;2023-08-08T13:04:38;2.65;;;1.17;;
32705;SDS011;19094;50.972;3.538;2023-08-08T13:07:05;5.05;;;1.27;;
32705;SDS011;19094;50.972;3.538;2023-08-08T13:09:30;5.18;;;1.17;;
32705;SDS011;19094;50.972;3.538;2023-08-08T13:11:56;1.10;;;0.90;;
32705;SDS011;19094;50.972;3.538;2023-08-08T13:14:22;2.78;;;1.00;;
32705;SDS011;19094;50.972;3.538;2023-08-08T13:16:47;3.88;;;0.95;;
32705;SDS011;19094;50.972;3.538;2023-08-08T13:19:13;3.15;;;0.90;;
32705;SDS011;19094;50.972;3.538;2023-08-08T13:21:41;2.65;;;1.05;;
32705;SDS011;19094;50.972;3.538;2023-08-08T13:24:07;4.65;;;1.05;;
32705;SDS011;19094;50.972;3.538;2023-08-08T13:26:35;5.07;;;1.00;;
32705;SDS011;19094;50.972;3.538;2023-08-08T13:29:00;1.30;;;0.65;;
32705;SDS011;19094;50.972;3.538;2023-08-08T13:31:26;4.13;;;1.10;;
32705;SDS011;19094;50.972;3.538;2023-08-08T13:33:51;2.63;;;0.93;;
32705;SDS011;19094;50.972;3.538;2023-08-08T13:36:17;5.57;;;1.35;;
32705;SDS011;19094;50.972;3.538;2023-08-08T13:38:43;2.33;;;0.98;;
32705;SDS011;19094;50.972;3.538;2023-08-08T13:41:08;2.95;;;1.27;;
32705;SDS011;19094;50.972;3.538;2023-08-08T13:43:34;2.15;;;0.90;;
32705;SDS011;19094;50.972;3.538;2023-08-08T13:46:00;5.45;;;0.90;;
32705;SDS011;19094;50.972;3.538;2023-08-08T13:48:27;3.83;;;1.35;;
32705;SDS011;19094;50.972;3.538;2023-08-08T13:50:53;5.38;;;1.00;;
32705;SDS011;19094;50.972;3.538;2023-08-08T13:53:18;6.18;;;1.85;;
32705;SDS011;19094;50.972;3.538;2023-08-08T13:55:44;9.73;;;1.15;;
32705;SDS011;19094;50.972;3.538;2023-08-08T13:58:10;2.25;;;1.10;;
32705;SDS011;19094;50.972;3.538;2023-08-08T14:00:35;3.78;;;1.33;;
32705;SDS011;19094;50.972;3.538;2023-08-08T14:03:01;6.82;;;1.35;;
32705;SDS011;19094;50.972;3.538;2023-08-08T14:05:27;2.72;;;1.20;;
32705;SDS011;19094;50.972;3.538;2023-08-08T14:07:54;1.85;;;1.40;;
32705;SDS011;19094;50.972;3.538;2023-08-08T14:10:20;2.90;;;1.20;;
32705;SDS011;19094;50.972;3.538;2023-08-08T14:12:45;4.30;;;1.40;;
32705;SDS011;19094;50.972;3.538;2023-08-08T14:15:11;2.42;;;1.30;;
32705;SDS011;19094;50.972;3.538;2023-08-08T14:17:37;3.30;;;1.10;;
32705;SDS011;19094;50.972;3.538;2023-08-08T14:20:02;1.40;;;1.00;;
32705;SDS011;19094;50.972;3.538;2023-08-08T14:22:29;2.70;;;1.27;;
32705;SDS011;19094;50.972;3.538;2023-08-08T14:24:55;3.33;;;1.15;;
32705;SDS011;19094;50.972;3.538;2023-08-08T14:27:21;3.42;;;1.20;;
32705;SDS011;19094;50.972;3.538;2023-08-08T14:29:47;4.75;;;1.60;;
32705;SDS011;19094;50.972;3.538;2023-08-08T14:32:13;2.05;;;1.40;;
32705;SDS011;19094;50.972;3.538;2023-08-08T14:34:39;2.80;;;1.13;;
32705;SDS011;19094;50.972;3.538;2023-08-08T14:37:04;3.90;;;1.38;;